Time;durP1;ratioP1;P1;durP2;ratioP2;P2;SDS_P1;SDS_P2;PMS_P1;PMS_P2;Temp;Humidity;BMP_temperature;BMP_pressure;BME280_temperature;BME280_humidity;BME280_pressure;Samples;Min_cycle;Max_cycle;Signal;HPM_P1;HPM_P2
2023/01/09 00:02:15;;;;;;;11.80;2.50;;;6.60;99.90;;;;;;5059309;28;20180;-60
2023/01/09 00:04:40;;;;;;;10.33;2.93;;;6.60;99.90;;;;;;5062278;28;20624;-60
2023/01/09 00:07:06;;;;;;;10.10;1.73;;;6.80;99.90;;;;;;5055382;28;20732;-59
2023/01/09 00:09:31;;;;;;;12.10;2.33;;;6.70;99.90;;;;;;5070194;28;20540;-59
2023/01/09 00:11:57;;;;;;;14.40;2.07;;;6.70;99.90;;;;;;5067594;28;20226;-60
2023/01/09 00:14:23;;;;;;;14.60;1.87;;;6.90;99.90;;;;;;5068675;28;20242;-60
2023/01/09 00:16:49;;;;;;;13.03;2.13;;;7.00;99.90;;;;;;5070402;28;20201;-60
2023/01/09 00:19:14;;;;;;;9.80;1.97;;;7.00;99.90;;;;;;5070419;28;20177;-60
2023/01/09 00:21:40;;;;;;;16.63;2.20;;;7.10;99.90;;;;;;5070505;28;20183;-60
2023/01/09 00:24:06;;;;;;;10.63;2.27;;;7.00;99.90;;;;;;5070419;28;20173;-60
2023/01/09 00:26:32;;;;;;;13.03;2.47;;;7.40;99.90;;;;;;5070492;28;20283;-60
2023/01/09 00:28:58;;;;;;;12.90;2.97;;;7.10;99.90;;;;;;5070260;28;20620;-60
2023/01/09 00:31:23;;;;;;;13.60;2.63;;;7.10;99.90;;;;;;5050852;28;20184;-60
2023/01/09 00:34:00;;;;;;;10.93;3.00;;;7.10;99.90;;;;;;5054367;28;20173;-60
2023/01/09 00:36:26;;;;;;;16.10;3.13;;;7.10;99.90;;;;;;5050004;28;20274;-60
2023/01/09 00:38:51;;;;;;;14.00;2.97;;;6.70;99.90;;;;;;5065145;28;20211;-59
2023/01/09 00:41:23;;;;;;;15.40;2.70;;;7.00;99.90;;;;;;5054908;28;20606;-60
2023/01/09 00:43:52;;;;;;;16.83;3.13;;;7.10;99.90;;;;;;5063331;28;20184;-60
2023/01/09 00:46:20;;;;;;;15.93;3.03;;;7.30;99.90;;;;;;5066446;28;20556;-60
2023/01/09 00:48:48;;;;;;;20.70;3.50;;;7.00;99.90;;;;;;5065289;28;20176;-60
2023/01/09 00:51:15;;;;;;;16.23;2.80;;;7.00;99.90;;;;;;5053415;28;20272;-60
2023/01/09 00:53:42;;;;;;;24.27;3.33;;;7.00;99.90;;;;;;5070245;28;20559;-60
2023/01/09 00:56:13;;;;;;;17.67;3.00;;;7.10;99.90;;;;;;5068754;28;20188;-60
2023/01/09 00:58:39;;;;;;;20.30;3.37;;;7.00;99.90;;;;;;5053133;28;20208;-60
2023/01/09 01:01:05;;;;;;;14.50;2.50;;;7.00;99.90;;;;;;5057589;28;20173;-60
2023/01/09 01:03:31;;;;;;;17.40;3.03;;;6.80;99.90;;;;;;5061413;28;20519;-60
2023/01/09 01:08:40;;;;;;;11.67;2.73;;;7.00;99.90;;;;;;5053524;28;20221;-60
2023/01/09 01:11:09;;;;;;;17.03;2.70;;;7.00;99.90;;;;;;5059398;28;20204;-60
2023/01/09 01:13:35;;;;;;;20.67;2.33;;;7.10;99.90;;;;;;5073001;28;20215;-60
2023/01/09 01:16:04;;;;;;;24.20;2.40;;;6.90;99.90;;;;;;5072756;28;20246;-60
2023/01/09 01:18:30;;;;;;;12.63;2.67;;;7.10;99.90;;;;;;5072077;28;20311;-61
2023/01/09 01:20:55;;;;;;;10.80;1.90;;;7.30;99.90;;;;;;5072774;28;20643;-61
2023/01/09 01:23:21;;;;;;;10.20;1.73;;;7.50;99.90;;;;;;5073180;28;20240;-60
2023/01/09 01:25:48;;;;;;;16.87;2.30;;;7.50;99.90;;;;;;5073248;28;20206;-60
2023/01/09 01:28:13;;;;;;;11.97;2.43;;;7.70;99.90;;;;;;5073477;28;20208;-61
2023/01/09 01:30:41;;;;;;;12.23;1.97;;;7.80;99.90;;;;;;5073131;28;20176;-61
2023/01/09 01:33:08;;;;;;;18.70;2.07;;;7.90;99.90;;;;;;5073047;28;20181;-59
2023/01/09 01:35:34;;;;;;;19.73;1.97;;;8.00;99.90;;;;;;5072920;28;20218;-61
2023/01/09 01:38:00;;;;;;;11.50;2.20;;;8.10;99.90;;;;;;5064412;28;20576;-61
2023/01/09 01:40:26;;;;;;;13.77;2.20;;;8.10;99.90;;;;;;5068026;28;20169;-61
2023/01/09 01:42:53;;;;;;;20.60;2.27;;;8.20;99.90;;;;;;5065932;28;20703;-61
2023/01/09 01:45:22;;;;;;;19.27;2.40;;;8.20;99.90;;;;;;5056183;28;20177;-61
2023/01/09 01:48:02;;;;;;;20.03;2.20;;;8.20;99.90;;;;;;5055357;28;20177;-60
2023/01/09 01:50:48;;;;;;;18.63;2.23;;;8.30;99.90;;;;;;5068057;28;20172;-60
2023/01/09 01:53:18;;;;;;;14.93;2.17;;;8.10;99.90;;;;;;5072392;28;20191;-60
2023/01/09 01:56:05;;;;;;;10.33;2.23;;;8.10;99.90;;;;;;5072345;28;20184;-59
2023/01/09 01:58:32;;;;;;;18.73;2.17;;;8.00;99.90;;;;;;5069985;28;20212;-59
2023/01/09 02:00:58;;;;;;;13.93;1.73;;;7.80;99.90;;;;;;5054634;28;20173;-59
2023/01/09 02:03:27;;;;;;;16.57;2.23;;;7.90;99.90;;;;;;5052460;28;20227;-59
2023/01/09 02:05:52;;;;;;;14.43;2.10;;;7.90;99.90;;;;;;5054335;28;20173;-59
2023/01/09 02:08:18;;;;;;;18.20;2.20;;;8.00;99.90;;;;;;5056216;28;20230;-59
2023/01/09 02:10:44;;;;;;;21.30;2.90;;;7.90;99.90;;;;;;5067961;28;20181;-59
2023/01/09 02:13:12;;;;;;;21.43;3.10;;;7.80;99.90;;;;;;5072255;28;20511;-59
2023/01/09 02:16:06;;;;;;;15.03;1.87;;;7.80;99.90;;;;;;5072313;28;20206;-59
2023/01/09 02:18:43;;;;;;;18.00;2.27;;;7.80;99.90;;;;;;5071044;28;20212;-59
2023/01/09 02:21:14;;;;;;;23.20;1.67;;;7.70;99.90;;;;;;5070426;28;20200;-60
2023/01/09 02:24:04;;;;;;;17.63;2.47;;;7.70;99.90;;;;;;5071709;28;20167;-60
2023/01/09 02:27:03;;;;;;;14.50;2.40;;;7.70;99.90;;;;;;5071427;28;20189;-60
2023/01/09 02:29:59;;;;;;;27.37;2.63;;;7.70;99.90;;;;;;5068589;28;20173;-60
2023/01/09 02:32:27;;;;;;;23.63;3.03;;;7.70;99.90;;;;;;5071918;28;20176;-60
2023/01/09 02:34:55;;;;;;;18.60;2.90;;;7.70;99.90;;;;;;5071954;28;20173;-61
2023/01/09 02:37:35;;;;;;;22.50;2.30;;;7.70;99.90;;;;;;5071566;28;20804;-59
2023/01/09 02:40:21;;;;;;;22.70;2.77;;;6.90;99.90;;;;;;5069917;28;20191;-59
2023/01/09 02:42:48;;;;;;;15.43;2.37;;;7.60;99.90;;;;;;5063120;28;20184;-58
2023/01/09 02:45:13;;;;;;;18.40;2.20;;;7.70;99.90;;;;;;5053211;28;20177;-58
2023/01/09 02:47:40;;;;;;;19.20;2.60;;;7.70;99.90;;;;;;5051620;28;20184;-59
2023/01/09 02:50:10;;;;;;;16.23;2.47;;;7.70;99.90;;;;;;5051699;28;20187;-59
2023/01/09 02:52:57;;;;;;;14.40;2.50;;;7.70;99.90;;;;;;5051631;28;20636;-59
2023/01/09 02:56:10;;;;;;;13.10;1.63;;;7.70;99.90;;;;;;5063041;28;20216;-59
2023/01/09 02:58:50;;;;;;;12.43;2.40;;;7.70;99.90;;;;;;5065600;28;20230;-60
2023/01/09 03:01:31;;;;;;;13.77;2.70;;;7.80;99.90;;;;;;5067532;28;20180;-60
2023/01/09 03:04:29;;;;;;;10.40;1.87;;;7.80;99.90;;;;;;5067976;28;20179;-60
2023/01/09 03:07:06;;;;;;;14.40;2.47;;;7.70;99.90;;;;;;5060827;28;20192;-60
2023/01/09 03:09:35;;;;;;;9.33;1.80;;;7.80;99.90;;;;;;5068770;28;20187;-60
2023/01/09 03:12:11;;;;;;;13.83;1.53;;;7.70;99.90;;;;;;5055111;28;20172;-60
2023/01/09 03:14:42;;;;;;;10.83;2.00;;;7.70;99.90;;;;;;5062968;28;20229;-60
2023/01/09 03:17:12;;;;;;;14.60;1.90;;;7.60;99.90;;;;;;5060559;28;20209;-59
2023/01/09 03:19:39;;;;;;;18.33;2.17;;;7.70;99.90;;;;;;5057335;28;20230;-59
2023/01/09 03:22:07;;;;;;;11.20;1.80;;;7.70;99.90;;;;;;5070959;28;20710;-60
2023/01/09 03:24:32;;;;;;;13.70;1.80;;;7.70;99.90;;;;;;5068893;28;20263;-59
2023/01/09 03:26:58;;;;;;;17.87;2.03;;;7.70;99.90;;;;;;5070370;28;20267;-59
2023/01/09 03:29:24;;;;;;;13.40;1.87;;;7.60;99.90;;;;;;5059587;28;20606;-60
2023/01/09 03:31:50;;;;;;;10.80;1.60;;;7.60;99.90;;;;;;5067406;28;20533;-59
2023/01/09 03:34:15;;;;;;;15.70;2.07;;;7.60;99.90;;;;;;5068909;28;20204;-62
2023/01/09 03:36:41;;;;;;;15.43;2.00;;;7.30;99.90;;;;;;5069332;28;20703;-60
2023/01/09 03:39:07;;;;;;;17.23;2.20;;;7.60;99.90;;;;;;5070415;28;20172;-60
2023/01/09 03:41:32;;;;;;;17.67;2.20;;;7.50;99.90;;;;;;5070805;28;20191;-59
2023/01/09 03:43:58;;;;;;;13.87;1.90;;;7.60;99.90;;;;;;5070970;28;20172;-59
2023/01/09 03:46:23;;;;;;;17.20;2.10;;;7.60;99.90;;;;;;5070683;28;20184;-59
2023/01/09 03:48:49;;;;;;;20.10;2.70;;;7.70;99.90;;;;;;5070739;28;20643;-59
2023/01/09 03:51:15;;;;;;;18.43;1.80;;;7.60;99.90;;;;;;5067986;28;20252;-60
2023/01/09 03:53:41;;;;;;;15.80;2.13;;;7.40;99.90;;;;;;5059313;28;20332;-59
2023/01/09 03:56:07;;;;;;;17.23;1.70;;;7.60;99.90;;;;;;5070556;28;20172;-59
2023/01/09 03:58:32;;;;;;;17.10;1.97;;;7.60;99.90;;;;;;5053299;28;20752;-59
2023/01/09 04:01:00;;;;;;;15.73;1.87;;;7.80;99.90;;;;;;5050827;28;20169;-59
2023/01/09 04:03:25;;;;;;;15.47;2.43;;;7.60;99.90;;;;;;5062208;28;20175;-60
2023/01/09 04:05:51;;;;;;;13.37;2.37;;;7.60;99.90;;;;;;5055520;28;20185;-61
2023/01/09 04:08:17;;;;;;;12.97;2.47;;;7.60;99.90;;;;;;5059338;28;20219;-59
2023/01/09 04:10:44;;;;;;;21.17;2.30;;;7.40;99.90;;;;;;5068823;28;20470;-59
2023/01/09 04:13:10;;;;;;;12.87;1.93;;;7.70;99.90;;;;;;5069384;28;20173;-60
2023/01/09 04:15:36;;;;;;;12.47;2.10;;;7.50;99.90;;;;;;5051924;28;20264;-59
2023/01/09 04:18:03;;;;;;;18.47;2.23;;;7.50;99.90;;;;;;5069661;28;20200;-60
2023/01/09 04:20:29;;;;;;;17.53;1.90;;;7.40;99.90;;;;;;5066332;28;20215;-59
2023/01/09 04:22:54;;;;;;;14.70;2.70;;;9.20;99.90;;;;;;5051501;28;20191;-59
2023/01/09 04:25:21;;;;;;;14.90;2.60;;;7.50;99.90;;;;;;5063771;28;20346;-60
2023/01/09 04:27:47;;;;;;;16.80;2.30;;;7.80;99.90;;;;;;5059190;28;20708;-60
2023/01/09 04:30:13;;;;;;;17.70;2.13;;;7.50;99.90;;;;;;5068656;28;20169;-60
2023/01/09 04:32:39;;;;;;;19.90;2.43;;;7.50;99.90;;;;;;5070326;28;20647;-59
2023/01/09 04:35:05;;;;;;;24.03;2.27;;;7.50;99.90;;;;;;5062402;28;20277;-60
2023/01/09 04:37:31;;;;;;;11.37;1.93;;;7.50;99.90;;;;;;5057292;28;20204;-61
2023/01/09 04:39:56;;;;;;;19.83;2.77;;;7.40;99.90;;;;;;5074122;28;20271;-60
2023/01/09 04:42:22;;;;;;;16.60;2.53;;;7.60;99.90;;;;;;5073817;28;20574;-60
2023/01/09 04:44:52;;;;;;;20.77;2.87;;;7.30;99.90;;;;;;5064929;28;20221;-60
2023/01/09 04:47:18;;;;;;;19.17;2.73;;;7.40;99.90;;;;;;5052698;28;20174;-60
2023/01/09 04:49:44;;;;;;;17.77;2.80;;;7.30;99.90;;;;;;5053885;28;20195;-60
2023/01/09 04:52:09;;;;;;;16.83;2.70;;;7.30;99.90;;;;;;5053711;28;20260;-59
2023/01/09 04:54:35;;;;;;;24.83;2.40;;;7.20;99.90;;;;;;5060869;28;20188;-56
2023/01/09 04:57:00;;;;;;;18.00;2.10;;;7.30;99.90;;;;;;5073540;28;20212;-60
2023/01/09 04:59:26;;;;;;;20.53;2.50;;;7.30;99.90;;;;;;5073642;28;20211;-60
2023/01/09 05:01:53;;;;;;;15.67;2.40;;;7.20;99.90;;;;;;5073497;28;20226;-60
2023/01/09 05:04:19;;;;;;;18.67;2.80;;;7.20;99.90;;;;;;5073356;28;20180;-60
2023/01/09 05:06:44;;;;;;;18.80;3.23;;;7.20;99.90;;;;;;5068066;28;20177;-60
2023/01/09 05:09:10;;;;;;;21.60;3.03;;;7.30;99.90;;;;;;5053669;28;20184;-60
2023/01/09 05:11:35;;;;;;;19.93;2.50;;;7.30;99.90;;;;;;5064359;28;20188;-60
2023/01/09 05:14:01;;;;;;;19.00;2.60;;;7.30;99.90;;;;;;5073248;28;20169;-60
2023/01/09 05:16:27;;;;;;;22.40;2.97;;;7.20;99.90;;;;;;5070402;28;20520;-60
2023/01/09 05:18:55;;;;;;;17.53;2.60;;;7.20;99.90;;;;;;5068782;28;20714;-60
2023/01/09 05:21:22;;;;;;;14.57;2.50;;;7.30;99.90;;;;;;5071269;28;20208;-60
2023/01/09 05:23:48;;;;;;;24.20;3.00;;;7.30;99.90;;;;;;5056274;28;20282;-60
2023/01/09 05:26:14;;;;;;;22.17;2.50;;;7.30;99.90;;;;;;5068926;28;20642;-60
2023/01/09 05:28:39;;;;;;;18.83;2.83;;;7.40;99.90;;;;;;5067293;28;20187;-60
2023/01/09 05:31:05;;;;;;;18.73;2.97;;;7.50;99.90;;;;;;5073252;28;20176;-60
2023/01/09 05:33:30;;;;;;;22.87;2.83;;;7.50;99.90;;;;;;5073029;28;20662;-60
2023/01/09 05:35:56;;;;;;;20.30;2.73;;;7.60;99.90;;;;;;5072932;28;20286;-60
2023/01/09 05:38:22;;;;;;;21.87;3.07;;;7.60;99.90;;;;;;5072946;28;20667;-60
2023/01/09 05:40:47;;;;;;;13.43;2.43;;;7.50;99.90;;;;;;5072946;28;20164;-60
2023/01/09 05:43:13;;;;;;;26.13;2.83;;;7.50;99.90;;;;;;5073036;28;20172;-60
2023/01/09 05:45:38;;;;;;;17.13;2.70;;;7.50;99.90;;;;;;5072777;28;20180;-60
2023/01/09 05:48:05;;;;;;;29.83;2.83;;;7.60;99.90;;;;;;5072429;28;20653;-61
2023/01/09 05:50:30;;;;;;;25.37;2.83;;;7.60;99.90;;;;;;5072693;28;20161;-60
2023/01/09 05:52:56;;;;;;;15.27;2.50;;;7.80;99.90;;;;;;5072814;28;20658;-60
2023/01/09 05:55:21;;;;;;;20.80;2.63;;;7.80;99.90;;;;;;5072750;28;20160;-61
2023/01/09 05:57:47;;;;;;;12.90;1.70;;;7.70;99.90;;;;;;5072495;28;20216;-60
2023/01/09 06:00:14;;;;;;;15.53;1.90;;;7.80;99.90;;;;;;5068301;28;20260;-61
2023/01/09 06:02:40;;;;;;;15.00;2.07;;;7.90;99.90;;;;;;5052563;28;20189;-60
2023/01/09 06:05:06;;;;;;;16.37;1.67;;;7.90;99.90;;;;;;5059994;28;20586;-60
2023/01/09 06:07:35;;;;;;;16.83;2.57;;;8.00;99.90;;;;;;5054167;28;20574;-60
2023/01/09 06:10:00;;;;;;;16.37;2.10;;;8.00;99.90;;;;;;5055035;28;20250;-60
2023/01/09 06:12:26;;;;;;;14.60;2.23;;;8.00;99.90;;;;;;5064476;28;20643;-60
2023/01/09 06:14:52;;;;;;;17.37;2.33;;;7.90;99.90;;;;;;5071920;28;20234;-60
2023/01/09 06:17:17;;;;;;;12.00;1.80;;;8.60;99.90;;;;;;5056929;28;20217;-60
2023/01/09 06:19:43;;;;;;;8.20;1.43;;;8.00;99.90;;;;;;5066432;28;20515;-61
2023/01/09 06:22:09;;;;;;;12.37;1.87;;;8.00;99.90;;;;;;5070052;28;20276;-58
2023/01/09 06:24:34;;;;;;;11.77;1.83;;;8.10;99.90;;;;;;5068105;28;20173;-60
2023/01/09 06:27:00;;;;;;;12.93;2.00;;;8.10;99.90;;;;;;5070410;28;20267;-60
2023/01/09 06:29:25;;;;;;;18.47;2.70;;;9.10;99.90;;;;;;5053216;28;20251;-60
2023/01/09 06:31:51;;;;;;;18.37;2.03;;;8.00;99.90;;;;;;5071147;28;20184;-60
2023/01/09 06:34:17;;;;;;;16.97;2.57;;;9.10;99.90;;;;;;5070483;28;20255;-60
2023/01/09 06:36:42;;;;;;;11.93;1.80;;;7.90;99.90;;;;;;5071615;28;20582;-60
2023/01/09 06:39:08;;;;;;;9.80;1.53;;;7.80;99.90;;;;;;5071013;28;20216;-60
2023/01/09 06:41:34;;;;;;;10.40;1.53;;;7.90;99.90;;;;;;5051842;28;20549;-60
2023/01/09 06:43:59;;;;;;;14.00;1.63;;;8.00;99.90;;;;;;5068434;28;20303;-60
2023/01/09 06:46:25;;;;;;;9.10;1.60;;;6.50;99.90;;;;;;5071582;28;20196;-60
2023/01/09 06:48:51;;;;;;;7.90;1.17;;;7.80;99.90;;;;;;5063813;28;20690;-60
2023/01/09 06:51:16;;;;;;;9.47;1.60;;;7.80;99.90;;;;;;5062875;28;20669;-60
2023/01/09 06:53:42;;;;;;;8.67;1.20;;;7.60;99.90;;;;;;5052330;28;20247;-60
2023/01/09 06:56:07;;;;;;;7.33;1.03;;;7.70;99.90;;;;;;5068033;28;20172;-60
2023/01/09 06:58:33;;;;;;;8.57;1.30;;;7.70;99.90;;;;;;5065444;28;20567;-60
2023/01/09 07:00:58;;;;;;;16.13;1.73;;;7.70;99.90;;;;;;5051694;28;20636;-60
2023/01/09 07:03:24;;;;;;;14.57;1.63;;;7.70;99.90;;;;;;5054008;28;20192;-61
2023/01/09 07:05:50;;;;;;;8.10;1.47;;;7.60;99.90;;;;;;5069579;28;20176;-61
2023/01/09 07:08:16;;;;;;;6.87;1.30;;;7.60;99.90;;;;;;5053063;28;20231;-61
2023/01/09 07:10:42;;;;;;;12.57;1.97;;;7.60;99.90;;;;;;5051322;28;20204;-61
2023/01/09 07:13:08;;;;;;;7.10;1.07;;;7.60;99.90;;;;;;5051097;28;20173;-61
2023/01/09 07:15:34;;;;;;;11.87;1.73;;;7.60;99.90;;;;;;5063861;28;20184;-61
2023/01/09 07:17:59;;;;;;;13.53;1.60;;;7.40;99.90;;;;;;5063828;28;20246;-61
2023/01/09 07:20:25;;;;;;;6.40;1.30;;;7.60;99.90;;;;;;5063110;28;20704;-61
2023/01/09 07:22:51;;;;;;;5.83;1.23;;;7.50;99.90;;;;;;5069266;28;20184;-60
2023/01/09 07:25:16;;;;;;;7.97;1.37;;;7.30;99.90;;;;;;5056430;28;20264;-60
2023/01/09 07:27:42;;;;;;;8.70;1.40;;;7.50;99.90;;;;;;5060009;28;20197;-60
2023/01/09 07:30:08;;;;;;;12.87;1.60;;;7.60;99.90;;;;;;5062791;28;20180;-60
2023/01/09 07:32:34;;;;;;;6.40;1.57;;;7.70;99.90;;;;;;5070755;28;20271;-60
2023/01/09 07:34:59;;;;;;;11.97;1.43;;;7.70;99.90;;;;;;5070990;28;20267;-60
2023/01/09 07:37:25;;;;;;;10.73;2.03;;;7.80;99.90;;;;;;5070962;28;20714;-61
2023/01/09 07:39:51;;;;;;;10.70;1.97;;;7.90;99.90;;;;;;5070911;28;20172;-61
2023/01/09 07:42:17;;;;;;;8.27;1.20;;;7.90;99.90;;;;;;5070760;28;20667;-61
2023/01/09 07:44:42;;;;;;;15.70;1.70;;;7.90;99.90;;;;;;5070755;28;20256;-61
2023/01/09 07:47:08;;;;;;;11.50;1.73;;;7.80;99.90;;;;;;5070725;28;20323;-60
2023/01/09 07:49:34;;;;;;;10.37;1.60;;;7.70;99.90;;;;;;5070819;28;20188;-61
2023/01/09 07:51:59;;;;;;;8.27;1.60;;;7.70;99.90;;;;;;5070877;28;20257;-59
2023/01/09 07:54:25;;;;;;;8.40;1.13;;;7.80;99.90;;;;;;5070325;28;20172;-57
2023/01/09 07:56:51;;;;;;;11.27;1.20;;;7.80;99.90;;;;;;5070303;28;20686;-58
2023/01/09 07:59:17;;;;;;;10.87;1.20;;;7.70;99.90;;;;;;5068340;28;20542;-59
2023/01/09 08:01:43;;;;;;;12.50;1.17;;;7.70;99.90;;;;;;5062883;28;20176;-59
2023/01/09 08:04:08;;;;;;;8.67;1.10;;;7.70;99.90;;;;;;5059974;28;20180;-59
2023/01/09 08:06:34;;;;;;;4.60;1.00;;;7.60;99.90;;;;;;5070516;28;20169;-59
2023/01/09 08:08:59;;;;;;;8.50;1.23;;;7.70;99.90;;;;;;5070492;28;20199;-59
2023/01/09 08:11:25;;;;;;;8.27;1.20;;;7.70;99.90;;;;;;5055612;28;20643;-60
2023/01/09 08:13:51;;;;;;;4.93;0.77;;;7.60;99.90;;;;;;5054190;28;20169;-61
2023/01/09 08:16:17;;;;;;;5.67;0.90;;;7.70;99.90;;;;;;5074331;28;20175;-60
2023/01/09 08:18:43;;;;;;;5.20;0.70;;;7.50;99.90;;;;;;5065750;28;20201;-60
2023/01/09 08:21:10;;;;;;;4.90;1.00;;;7.60;99.90;;;;;;5068477;28;20538;-60
2023/01/09 08:23:36;;;;;;;7.20;0.67;;;7.40;99.90;;;;;;5066689;28;20193;-60
2023/01/09 08:26:02;;;;;;;8.77;0.83;;;7.60;99.90;;;;;;5073809;28;20530;-60
2023/01/09 08:28:28;;;;;;;7.20;1.43;;;7.60;99.90;;;;;;5074260;28;20165;-60
2023/01/09 08:30:54;;;;;;;9.20;0.90;;;7.60;99.90;;;;;;5072318;28;20250;-59
2023/01/09 08:33:19;;;;;;;7.80;0.93;;;7.60;99.90;;;;;;5073738;28;20173;-59
2023/01/09 08:35:45;;;;;;;2.80;0.50;;;7.60;99.90;;;;;;5073876;28;20710;-60
2023/01/09 08:38:10;;;;;;;7.20;1.10;;;7.70;99.90;;;;;;5072134;28;20686;-60
2023/01/09 08:40:36;;;;;;;5.50;0.97;;;7.90;99.90;;;;;;5074078;28;20172;-58
2023/01/09 08:48:31;;;;;;;11.20;0.90;;;7.50;99.90;;;;;;5073854;28;20704;-58
2023/01/09 08:50:56;;;;;;;6.40;0.93;;;7.50;99.90;;;;;;5073649;28;20169;-58
2023/01/09 08:53:22;;;;;;;8.93;1.10;;;7.50;99.90;;;;;;5073893;28;20298;-58
2023/01/09 08:55:47;;;;;;;4.97;0.90;;;7.50;99.90;;;;;;5073731;28;20251;-58
2023/01/09 08:58:13;;;;;;;4.80;0.87;;;7.40;99.90;;;;;;5073951;28;20270;-58
2023/01/09 09:00:39;;;;;;;9.47;1.10;;;7.60;99.90;;;;;;5073404;28;20188;-58
2023/01/09 09:03:04;;;;;;;6.73;1.00;;;8.20;99.90;;;;;;5073829;28;20183;-58
2023/01/09 09:05:31;;;;;;;8.17;1.10;;;9.00;99.90;;;;;;5054480;28;20656;-58
2023/01/09 09:07:57;;;;;;;7.17;0.80;;;9.20;99.90;;;;;;5059181;28;20204;-58
2023/01/09 09:10:26;;;;;;;5.57;0.83;;;9.00;99.90;;;;;;5073491;28;20172;-58
2023/01/09 09:12:54;;;;;;;10.57;1.10;;;9.70;99.90;;;;;;5071031;28;20264;-58
2023/01/09 09:15:23;;;;;;;7.47;1.10;;;9.80;99.90;;;;;;5059892;28;20267;-59
2023/01/09 09:17:54;;;;;;;3.60;0.83;;;9.90;99.90;;;;;;5065715;28;20255;-59
2023/01/09 09:20:21;;;;;;;6.80;0.73;;;9.50;99.90;;;;;;5073341;28;20187;-58
2023/01/09 09:22:47;;;;;;;9.70;0.90;;;9.20;99.90;;;;;;5072537;28;20172;-58
2023/01/09 09:25:14;;;;;;;5.83;0.90;;;9.00;99.90;;;;;;5073129;28;20168;-58
2023/01/09 09:27:39;;;;;;;5.50;1.00;;;8.80;99.90;;;;;;5073202;28;20587;-60
2023/01/09 09:30:06;;;;;;;7.03;1.33;;;9.10;99.90;;;;;;5070908;28;20283;-60
2023/01/09 09:32:32;;;;;;;7.63;1.40;;;9.10;99.90;;;;;;5072967;28;20192;-60
2023/01/09 09:34:57;;;;;;;9.23;1.43;;;9.20;99.90;;;;;;5073120;28;20180;-58
2023/01/09 09:37:23;;;;;;;5.40;1.20;;;9.30;99.90;;;;;;5069858;28;20228;-57
2023/01/09 09:39:49;;;;;;;8.67;1.00;;;9.10;99.90;;;;;;5073033;28;20234;-56
2023/01/09 09:46:00;;;;;;;9.53;1.20;;;8.90;99.90;;;;;;5072935;28;20263;-59
2023/01/09 09:48:44;;;;;;;12.10;1.50;;;8.80;99.90;;;;;;5052877;28;20185;-57
2023/01/09 09:51:15;;;;;;;9.10;1.07;;;8.80;99.90;;;;;;5052608;28;20173;-57
2023/01/09 09:53:58;;;;;;;10.77;1.20;;;8.80;99.90;;;;;;5064875;28;20188;-57
2023/01/09 09:56:27;;;;;;;5.10;1.00;;;8.90;99.90;;;;;;5059584;28;20310;-57
2023/01/09 09:58:59;;;;;;;11.83;1.23;;;9.50;99.90;;;;;;5072533;28;20204;-57
2023/01/09 10:01:39;;;;;;;6.80;1.40;;;9.80;99.90;;;;;;5072464;28;20263;-57
2023/01/09 10:04:10;;;;;;;9.70;1.47;;;9.80;99.90;;;;;;5071926;28;20217;-57
2023/01/09 10:06:51;;;;;;;11.83;1.20;;;9.90;99.90;;;;;;5070618;28;20217;-57
2023/01/09 10:09:27;;;;;;;8.17;1.00;;;10.10;99.90;;;;;;5064576;28;20245;-55
2023/01/09 10:12:12;;;;;;;6.90;1.10;;;10.10;99.90;;;;;;5059684;28;20237;-56
2023/01/09 10:14:38;;;;;;;8.90;1.83;;;10.20;99.90;;;;;;5072353;28;20175;-56
2023/01/09 10:17:27;;;;;;;8.67;1.70;;;9.90;99.90;;;;;;5071715;28;20726;-56
2023/01/09 10:19:55;;;;;;;12.43;1.50;;;9.60;99.90;;;;;;5069473;28;20169;-56
2023/01/09 10:22:51;;;;;;;10.80;1.63;;;9.70;99.90;;;;;;5058460;28;20256;-56
2023/01/09 10:25:17;;;;;;;10.83;1.37;;;9.70;99.90;;;;;;5061349;28;20187;-56
2023/01/09 10:28:04;;;;;;;10.97;1.93;;;9.80;99.90;;;;;;5052058;28;20173;-57
2023/01/09 10:30:35;;;;;;;8.93;1.40;;;10.00;99.90;;;;;;5052397;28;20295;-57
2023/01/09 10:33:25;;;;;;;18.70;1.83;;;10.10;99.90;;;;;;5051603;28;20165;-56
2023/01/09 10:36:06;;;;;;;12.73;2.03;;;10.00;99.90;;;;;;5051667;28;20225;-56
2023/01/09 10:38:35;;;;;;;7.03;1.07;;;9.80;99.90;;;;;;5052253;28;20232;-55
2023/01/09 10:41:17;;;;;;;12.67;1.63;;;9.90;99.90;;;;;;5051666;28;20651;-59
2023/01/09 10:43:50;;;;;;;14.50;1.93;;;10.20;99.90;;;;;;5052474;28;20181;-59
2023/01/09 10:46:26;;;;;;;16.93;2.33;;;10.50;99.90;;;;;;5058243;28;20248;-59
2023/01/09 10:48:59;;;;;;;13.30;2.50;;;10.70;99.90;;;;;;5064748;28;20176;-59
2023/01/09 10:51:54;;;;;;;12.03;2.17;;;11.30;99.90;;;;;;5056124;28;20176;-59
2023/01/09 10:54:22;;;;;;;15.13;2.50;;;11.30;99.90;;;;;;4999637;28;20284;-60
2023/01/09 10:57:13;;;;;;;14.23;2.20;;;11.30;99.90;;;;;;5071457;28;20298;-59
2023/01/09 10:59:40;;;;;;;12.27;2.40;;;11.50;99.90;;;;;;5069504;28;20372;-60
2023/01/09 11:02:27;;;;;;;16.10;2.30;;;12.00;99.90;;;;;;5069330;28;20215;-59
2023/01/09 11:04:53;;;;;;;17.30;2.53;;;11.90;99.90;;;;;;5069873;28;20519;-59
2023/01/09 11:07:22;;;;;;;14.77;2.33;;;11.70;99.90;;;;;;5069281;28;20573;-59
2023/01/09 11:09:57;;;;;;;11.73;1.70;;;11.80;99.90;;;;;;5069240;28;20175;-60
2023/01/09 11:12:25;;;;;;;10.50;1.53;;;11.70;99.90;;;;;;5069421;28;20172;-60
2023/01/09 11:14:51;;;;;;;16.43;2.27;;;12.70;99.90;;;;;;5071086;28;20161;-60
2023/01/09 11:17:24;;;;;;;14.87;2.27;;;13.10;99.90;;;;;;5070030;28;20219;-60
2023/01/09 11:20:06;;;;;;;9.20;1.87;;;13.60;99.90;;;;;;5060360;28;20176;-59
2023/01/09 11:22:46;;;;;;;16.80;2.30;;;13.20;99.90;;;;;;5070973;28;20191;-58
2023/01/09 11:25:14;;;;;;;20.13;3.00;;;13.90;99.90;;;;;;5071069;28;20184;-58
2023/01/09 11:27:40;;;;;;;17.70;2.43;;;14.70;99.90;;;;;;5071028;28;20698;-58
2023/01/09 11:30:11;;;;;;;10.63;2.00;;;14.80;99.90;;;;;;5070891;28;20176;-59
2023/01/09 11:32:37;;;;;;;22.63;3.17;;;15.10;99.90;;;;;;5070913;28;20252;-59
2023/01/09 11:35:30;;;;;;;8.43;1.80;;;14.70;99.90;;;;;;5070946;28;20700;-59
2023/01/09 11:37:58;;;;;;;18.90;3.03;;;14.60;99.90;;;;;;5064311;28;20263;-59
2023/01/09 11:40:24;;;;;;;15.03;2.27;;;14.70;99.90;;;;;;5070857;28;20227;-59
2023/01/09 11:43:11;;;;;;;12.40;1.73;;;15.50;99.90;;;;;;5071025;28;20670;-59
2023/01/09 11:45:47;;;;;;;17.42;2.45;;;14.60;99.90;;;;;;5068998;28;20172;-59
2023/01/09 11:48:30;;;;;;;13.02;2.20;;;15.00;99.90;;;;;;5070823;28;20202;-59
2023/01/09 11:50:58;;;;;;;12.02;2.40;;;14.80;99.90;;;;;;5069731;28;20200;-59
2023/01/09 11:53:25;;;;;;;15.70;2.53;;;15.90;99.90;;;;;;5054931;28;20181;-59
2023/01/09 11:56:01;;;;;;;9.82;2.08;;;15.60;99.90;;;;;;5050746;28;20175;-59
2023/01/09 11:58:34;;;;;;;14.35;2.78;;;15.50;99.90;;;;;;5055462;28;20214;-60
2023/01/09 12:00:59;;;;;;;14.48;2.10;;;17.40;99.90;;;;;;5063569;28;20179;-60
2023/01/09 12:03:28;;;;;;;14.55;3.13;;;15.70;99.90;;;;;;5070488;28;20168;-59
2023/01/09 12:06:26;;;;;;;16.58;2.78;;;14.80;99.90;;;;;;5051169;28;20165;-59
2023/01/09 12:08:56;;;;;;;12.38;2.72;;;13.70;99.90;;;;;;5050893;28;20181;-59
2023/01/09 12:11:39;;;;;;;16.33;2.67;;;17.00;99.90;;;;;;5050645;28;20180;-59
2023/01/09 12:14:59;;;;;;;15.95;2.90;;;17.60;99.90;;;;;;5050654;28;20191;-59
2023/01/09 12:17:39;;;;;;;12.18;2.53;;;19.00;99.90;;;;;;5028234;28;20294;-59
2023/01/09 12:20:32;;;;;;;11.85;2.33;;;20.40;94.30;;;;;;5032639;28;20177;-58
2023/01/09 12:23:13;;;;;;;10.80;2.60;;;19.80;86.00;;;;;;5067634;28;20187;-58
2023/01/09 12:25:52;;;;;;;11.73;2.72;;;17.70;87.30;;;;;;5070518;28;20184;-60
2023/01/09 12:28:20;;;;;;;12.75;3.03;;;17.30;92.30;;;;;;5065568;28;20161;-59
2023/01/09 12:31:18;;;;;;;17.05;2.97;;;18.60;92.20;;;;;;5064070;28;20172;-59
2023/01/09 12:34:12;;;;;;;11.98;2.55;;;18.30;92.70;;;;;;5065845;28;20263;-59
2023/01/09 12:36:53;;;;;;;17.95;3.35;;;20.10;89.70;;;;;;5070172;28;20223;-59
2023/01/09 12:39:26;;;;;;;14.05;2.97;;;19.90;83.80;;;;;;5055301;28;20192;-56
2023/01/09 12:42:00;;;;;;;15.38;3.17;;;19.40;79.40;;;;;;5050291;28;20177;-55
2023/01/09 12:44:46;;;;;;;9.35;2.40;;;20.70;77.90;;;;;;5059597;28;20244;-55
2023/01/09 12:47:17;;;;;;;14.00;2.38;;;20.70;69.20;;;;;;5070137;28;20284;-55
2023/01/09 12:50:12;;;;;;;10.27;2.58;;;21.30;62.10;;;;;;5070484;28;20514;-55
2023/01/09 12:52:43;;;;;;;14.40;2.45;;;18.90;55.50;;;;;;5070149;28;20185;-55
2023/01/09 12:55:18;;;;;;;10.70;2.38;;;19.80;64.50;;;;;;5070342;28;20204;-55
2023/01/09 12:57:53;;;;;;;11.93;2.58;;;19.60;60.90;;;;;;5072227;28;20671;-55
2023/01/09 13:00:36;;;;;;;11.77;2.55;;;21.30;56.30;;;;;;5060289;28;20208;-56
2023/01/09 13:03:26;;;;;;;11.68;2.22;;;21.40;50.60;;;;;;5065928;28;20180;-55
2023/01/09 13:05:52;;;;;;;11.48;2.60;;;21.20;43.50;;;;;;5067411;28;20181;-55
2023/01/09 13:08:36;;;;;;;11.65;2.13;;;21.50;45.70;;;;;;5053789;28;20195;-56
2023/01/09 13:11:14;;;;;;;8.30;1.90;;;20.70;38.70;;;;;;5059914;28;20180;-55
2023/01/09 13:13:54;;;;;;;10.05;2.72;;;20.90;40.40;;;;;;5073370;28;20176;-55
2023/01/09 13:16:25;;;;;;;14.88;2.38;;;21.10;36.90;;;;;;5073254;28;20179;-55